Birchdale, Minnesota
Current Conditions -  °F | °C
As of 6:53 AM on Friday 24 Oct 2014 (Local Time) from KBDE Reporting Station
Clear Clear  
Wind Chill: 47°   Ceiling: Unl
Heat Index: 49°   Visibility: 10mi
Dew Point: 41°   Wind: 6mph
Humidity: 74%   Direction: 210°SSW
Pressure: 29.73"   Gusts: NA
Location:  48.63°N, 94.1°W
Report Text: KBDE 241153Z AUTO 21005KT 10SM CLR 09/05 A2973 RMK AO2 SLP072 T00940050 10111 20094 56005 TSNO
Loading
Personal Weather Stations






























Interactive Weather Map
Tropical Storm Tracking
New forecast layout! Learn more

10-Day Weather Forecast

Advertisements
Track Severe Weather on mobile